createdAt,value
2023-05-20T00:01:49.466Z,18.60
2023-05-20T00:04:16.272Z,20.13
2023-05-20T00:06:42.980Z,22.90
2023-05-20T00:09:10.105Z,20.90
2023-05-20T00:11:36.983Z,19.80
2023-05-20T00:14:03.700Z,20.95
2023-05-20T00:16:30.554Z,21.30
2023-05-20T00:18:57.695Z,21.90
2023-05-20T00:21:24.426Z,20.23
2023-05-20T00:23:51.422Z,20.85
2023-05-20T00:26:18.077Z,21.98
2023-05-20T00:28:44.780Z,21.55
2023-05-20T00:31:11.562Z,21.83
2023-05-20T00:33:38.270Z,18.67
2023-05-20T00:36:05.465Z,22.45
2023-05-20T00:38:32.121Z,22.08
2023-05-20T00:40:58.831Z,20.85
2023-05-20T00:43:26.743Z,21.52
2023-05-20T00:45:54.307Z,20.03
2023-05-20T00:48:22.193Z,20.00
2023-05-20T00:50:49.927Z,20.95
2023-05-20T00:53:21.488Z,19.77
2023-05-20T00:55:48.501Z,22.40
2023-05-20T00:58:15.581Z,19.30
2023-05-20T01:00:43.024Z,22.15
2023-05-20T01:03:12.788Z,19.15
2023-05-20T01:05:42.066Z,19.08
2023-05-20T01:08:09.359Z,19.65
2023-05-20T01:10:39.409Z,22.88
2023-05-20T01:13:11.580Z,20.70
2023-05-20T01:15:40.636Z,19.45
2023-05-20T01:18:10.890Z,21.85
2023-05-20T01:20:38.121Z,22.75
2023-05-20T01:23:04.862Z,24.10
2023-05-20T01:25:31.685Z,24.73
2023-05-20T01:27:58.885Z,21.88
2023-05-20T01:30:35.701Z,22.60
2023-05-20T01:33:07.749Z,21.20
2023-05-20T01:35:35.586Z,22.83
2023-05-20T01:38:05.281Z,22.70
2023-05-20T01:40:34.025Z,24.42
2023-05-20T01:43:03.092Z,26.63
2023-05-20T01:45:29.756Z,23.38
2023-05-20T01:47:56.502Z,24.15
2023-05-20T01:50:23.325Z,26.77
2023-05-20T01:52:50.151Z,25.75
2023-05-20T01:55:17.035Z,24.30
2023-05-20T01:57:43.657Z,26.30
2023-05-20T02:00:11.472Z,25.00
2023-05-20T02:02:38.360Z,24.88
2023-05-20T02:05:05.855Z,28.23
2023-05-20T02:07:32.478Z,28.48
2023-05-20T02:09:59.287Z,27.48
2023-05-20T02:12:25.933Z,25.13
2023-05-20T02:14:52.660Z,25.02
2023-05-20T02:17:19.791Z,25.50
2023-05-20T02:19:47.441Z,25.58
2023-05-20T02:22:14.973Z,26.55
2023-05-20T02:24:43.553Z,24.83
2023-05-20T02:27:10.485Z,27.50
2023-05-20T02:29:38.721Z,24.58
2023-05-20T02:32:05.722Z,26.20
2023-05-20T02:34:33.155Z,25.90
2023-05-20T02:37:00.085Z,26.13
2023-05-20T02:39:28.591Z,29.65
2023-05-20T02:41:55.471Z,26.38
2023-05-20T02:44:22.180Z,26.20
2023-05-20T02:46:48.954Z,27.00
2023-05-20T02:49:15.811Z,26.70
2023-05-20T02:51:42.540Z,25.88
2023-05-20T02:54:09.187Z,28.38
2023-05-20T02:56:35.934Z,27.17
2023-05-20T02:59:03.869Z,23.55
2023-05-20T03:01:30.771Z,25.40
2023-05-20T03:03:58.124Z,24.38
2023-05-20T03:06:24.995Z,26.13
2023-05-20T03:08:51.633Z,28.27
2023-05-20T03:11:18.274Z,28.40
2023-05-20T03:13:44.916Z,26.83
2023-05-20T03:16:13.342Z,26.95
2023-05-20T03:18:40.121Z,28.45
2023-05-20T03:21:06.823Z,31.38
2023-05-20T03:23:33.456Z,31.35
2023-05-20T03:26:00.176Z,28.63
2023-05-20T03:28:26.865Z,34.10
2023-05-20T03:30:53.604Z,31.58
2023-05-20T03:33:20.922Z,33.95
2023-05-20T03:35:47.526Z,31.40
2023-05-20T03:38:14.265Z,38.67
2023-05-20T03:40:41.008Z,32.35
2023-05-20T03:43:07.758Z,36.33
2023-05-20T03:45:34.956Z,39.15
2023-05-20T03:48:03.627Z,39.92
2023-05-20T03:50:31.382Z,38.65
2023-05-20T03:52:58.047Z,44.40
2023-05-20T03:55:25.253Z,40.85
2023-05-20T03:57:51.960Z,36.28
2023-05-20T04:00:18.951Z,37.53
2023-05-20T04:02:45.918Z,38.60
2023-05-20T04:05:12.646Z,44.05
2023-05-20T04:07:39.580Z,42.95
2023-05-20T04:10:07.115Z,42.42
2023-05-20T04:12:34.068Z,39.83
2023-05-20T04:15:04.160Z,42.03
2023-05-20T04:17:31.634Z,40.15
2023-05-20T04:20:00.131Z,39.30
2023-05-20T04:22:27.235Z,43.17
2023-05-20T04:24:53.982Z,44.05
2023-05-20T04:27:21.872Z,45.33
2023-05-20T04:29:48.790Z,41.13
2023-05-20T04:32:18.966Z,45.22
2023-05-20T04:34:48.888Z,43.38
2023-05-20T04:37:16.233Z,40.28
2023-05-20T04:39:43.825Z,44.90
2023-05-20T04:42:10.452Z,42.05
2023-05-20T04:44:37.166Z,47.70
2023-05-20T04:47:04.605Z,42.30
2023-05-20T04:49:31.209Z,43.13
2023-05-20T04:51:58.797Z,41.10
2023-05-20T04:54:25.447Z,45.67
2023-05-20T04:56:52.415Z,42.15
2023-05-20T04:59:19.084Z,43.08
2023-05-20T05:01:45.942Z,41.75
2023-05-20T05:04:12.765Z,43.05
2023-05-20T05:06:39.449Z,45.22
2023-05-20T05:09:06.210Z,46.08
2023-05-20T05:11:33.007Z,44.17
2023-05-20T05:13:59.955Z,41.33
2023-05-20T05:16:26.695Z,46.80
2023-05-20T05:18:53.543Z,50.00
2023-05-20T05:21:20.376Z,46.00
2023-05-20T05:23:47.175Z,47.17
2023-05-20T05:26:13.857Z,47.08
2023-05-20T05:28:43.477Z,46.15
2023-05-20T05:31:10.245Z,40.63
2023-05-20T05:33:37.017Z,43.08
2023-05-20T05:36:05.086Z,43.75
2023-05-20T05:38:31.826Z,40.97
2023-05-20T05:40:58.585Z,45.97
2023-05-20T05:43:25.294Z,47.90
2023-05-20T05:45:51.997Z,44.25
2023-05-20T05:48:18.681Z,43.45
2023-05-20T05:50:46.439Z,44.53
2023-05-20T05:53:13.458Z,42.55
2023-05-20T05:55:40.221Z,46.50
2023-05-20T05:58:06.888Z,44.22
2023-05-20T06:00:33.994Z,43.95
2023-05-20T06:03:00.950Z,43.75
2023-05-20T06:05:31.650Z,51.58
2023-05-20T06:07:58.399Z,42.13
2023-05-20T06:10:25.106Z,44.97
2023-05-20T06:12:51.732Z,42.90
2023-05-20T06:15:18.522Z,40.20
2023-05-20T06:17:45.245Z,45.90
2023-05-20T06:20:12.394Z,42.42
2023-05-20T06:22:39.043Z,40.92
2023-05-20T06:25:06.480Z,40.97
2023-05-20T06:27:33.568Z,45.50
2023-05-20T06:30:00.339Z,51.15
2023-05-20T06:32:27.603Z,46.25
2023-05-20T06:34:54.351Z,49.80
2023-05-20T06:37:21.235Z,43.42
2023-05-20T06:39:51.616Z,47.28
2023-05-20T06:42:18.502Z,48.00
2023-05-20T06:44:45.121Z,51.00
2023-05-20T06:47:12.061Z,44.25
2023-05-20T06:49:38.836Z,46.30
2023-05-20T06:52:05.860Z,45.28
2023-05-20T06:54:34.388Z,43.25
2023-05-20T06:57:01.201Z,45.95
2023-05-20T06:59:27.873Z,44.88
2023-05-20T07:01:54.530Z,46.65
2023-05-20T07:04:21.268Z,42.58
2023-05-20T07:06:48.099Z,45.92
2023-05-20T07:09:14.766Z,43.08
2023-05-20T07:11:41.543Z,42.47
2023-05-20T07:14:09.266Z,46.13
2023-05-20T07:16:37.142Z,42.83
2023-05-20T07:19:04.714Z,43.90
2023-05-20T07:21:31.558Z,44.45
2023-05-20T07:23:58.207Z,44.42
2023-05-20T07:26:24.845Z,43.50
2023-05-20T07:28:52.208Z,38.47
2023-05-20T07:31:18.944Z,43.80
2023-05-20T07:33:45.862Z,43.20
2023-05-20T07:36:12.512Z,41.40
2023-05-20T07:38:47.116Z,39.78
2023-05-20T07:41:19.753Z,39.00
2023-05-20T07:43:46.910Z,39.75
2023-05-20T07:46:13.711Z,40.55
2023-05-20T07:48:40.427Z,38.63
2023-05-20T07:51:07.113Z,36.22
2023-05-20T07:53:34.080Z,39.53
2023-05-20T07:56:00.862Z,35.97
2023-05-20T07:58:28.194Z,38.55
2023-05-20T08:00:55.072Z,35.70
2023-05-20T08:03:22.942Z,34.75
2023-05-20T08:05:49.816Z,34.13
2023-05-20T08:08:17.365Z,33.17
2023-05-20T08:10:44.138Z,32.50
2023-05-20T08:13:11.058Z,32.08
2023-05-20T08:15:37.916Z,32.13
2023-05-20T08:18:04.695Z,33.05
2023-05-20T08:20:31.658Z,33.80
2023-05-20T08:22:58.521Z,30.13
2023-05-20T08:25:25.252Z,29.27
2023-05-20T08:27:52.136Z,29.30
2023-05-20T08:30:18.771Z,27.98
2023-05-20T08:32:45.764Z,29.17
2023-05-20T08:35:12.520Z,28.42
2023-05-20T08:37:39.247Z,25.08
2023-05-20T08:40:06.817Z,29.13
2023-05-20T08:42:34.493Z,32.55
2023-05-20T08:45:02.332Z,25.70
2023-05-20T08:47:29.081Z,23.00
2023-05-20T08:49:55.871Z,27.83
2023-05-20T08:52:22.808Z,19.95
2023-05-20T08:54:50.799Z,21.92
2023-05-20T08:57:17.991Z,18.17
2023-05-20T08:59:49.498Z,18.98
2023-05-20T09:02:16.226Z,18.23
2023-05-20T09:04:43.173Z,16.75
2023-05-20T09:07:09.864Z,17.15
2023-05-20T09:09:36.995Z,19.25
2023-05-20T09:12:04.089Z,17.75
2023-05-20T09:14:31.878Z,18.85
2023-05-20T09:17:02.626Z,18.53
2023-05-20T09:19:29.322Z,17.95
2023-05-20T09:21:56.510Z,18.45
2023-05-20T09:24:24.843Z,17.60
2023-05-20T09:26:52.335Z,17.52
2023-05-20T09:29:22.036Z,20.20
2023-05-20T09:31:49.684Z,21.63
2023-05-20T09:34:17.013Z,19.02
2023-05-20T09:36:45.363Z,15.85
2023-05-20T09:39:16.757Z,21.52
2023-05-20T09:41:56.956Z,21.25
2023-05-20T09:44:24.072Z,18.80
2023-05-20T09:46:51.190Z,19.33
2023-05-20T09:49:19.210Z,20.90
2023-05-20T09:51:47.005Z,27.40
2023-05-20T09:54:14.550Z,21.67
2023-05-20T09:56:42.231Z,16.65
2023-05-20T09:59:10.900Z,16.15
2023-05-20T10:01:37.711Z,18.83
2023-05-20T10:04:08.610Z,16.33
2023-05-20T10:06:46.469Z,16.55
2023-05-20T10:09:45.890Z,18.23
2023-05-20T10:12:39.920Z,15.65
2023-05-20T10:15:24.853Z,14.38
2023-05-20T10:18:33.949Z,15.45
2023-05-20T10:21:00.799Z,14.55
2023-05-20T10:23:31.281Z,16.42
2023-05-20T10:25:59.077Z,13.77
2023-05-20T10:28:34.344Z,14.07
2023-05-20T10:31:01.201Z,13.02
2023-05-20T10:33:28.737Z,13.43
2023-05-20T10:35:59.411Z,14.57
2023-05-20T10:38:26.567Z,12.20
2023-05-20T10:40:53.510Z,15.85
2023-05-20T10:43:30.897Z,12.95
2023-05-20T10:45:58.683Z,13.85
2023-05-20T10:48:28.411Z,13.17
2023-05-20T10:51:00.034Z,20.95
2023-05-20T10:53:34.367Z,12.43
2023-05-20T10:56:01.839Z,12.75
2023-05-20T10:58:28.530Z,12.02
2023-05-20T11:00:57.046Z,27.77
2023-05-20T11:03:25.332Z,13.57
2023-05-20T11:05:52.223Z,12.82
2023-05-20T11:08:27.901Z,10.63
2023-05-20T11:10:57.995Z,11.00
2023-05-20T11:13:25.900Z,11.00
2023-05-20T11:15:52.963Z,14.98
2023-05-20T11:18:19.752Z,10.90
2023-05-20T11:20:47.505Z,11.05
2023-05-20T11:23:15.682Z,10.43
2023-05-20T11:25:42.632Z,10.35
2023-05-20T11:28:15.587Z,11.10
2023-05-20T11:30:43.568Z,10.27
2023-05-20T11:33:13.385Z,9.73
2023-05-20T11:35:46.899Z,10.32
2023-05-20T11:38:13.666Z,10.52
2023-05-20T11:40:50.672Z,13.25
2023-05-20T11:43:19.242Z,10.32
2023-05-20T11:45:47.656Z,11.57
2023-05-20T11:48:17.115Z,12.65
2023-05-20T11:50:46.444Z,12.32
2023-05-20T11:53:21.604Z,12.32
2023-05-20T11:55:58.037Z,11.32
2023-05-20T11:58:26.617Z,12.50
2023-05-20T12:03:33.366Z,12.38
2023-05-20T12:06:03.988Z,15.45
2023-05-20T12:08:30.594Z,13.50
2023-05-20T12:10:57.195Z,14.85
2023-05-20T12:13:24.014Z,14.30
2023-05-20T12:15:50.735Z,13.30
2023-05-20T12:18:17.365Z,14.98
2023-05-20T12:20:44.033Z,14.95
2023-05-20T12:23:10.743Z,15.50
2023-05-20T12:25:37.410Z,13.32
2023-05-20T12:28:04.269Z,13.70
2023-05-20T12:30:31.243Z,13.07
2023-05-20T12:32:57.913Z,13.13
2023-05-20T12:35:42.729Z,14.82
2023-05-20T12:38:10.143Z,14.98
2023-05-20T12:40:37.581Z,15.45
2023-05-20T12:43:05.465Z,13.55
2023-05-20T12:45:32.524Z,15.73
2023-05-20T12:47:59.702Z,13.40
2023-05-20T12:50:27.529Z,14.82
2023-05-20T12:52:54.305Z,15.00
2023-05-20T12:55:21.093Z,14.23
2023-05-20T12:57:47.887Z,12.82
2023-05-20T13:00:15.302Z,14.70
2023-05-20T13:02:42.756Z,14.55
2023-05-20T13:05:10.709Z,14.23
2023-05-20T13:07:37.832Z,13.18
2023-05-20T13:10:05.367Z,14.32
2023-05-20T13:12:32.086Z,15.20
2023-05-20T13:14:58.802Z,16.10
2023-05-20T13:17:25.702Z,19.35
2023-05-20T13:19:52.415Z,17.25
2023-05-20T13:22:19.622Z,15.95
2023-05-20T13:24:46.265Z,15.90
2023-05-20T13:27:13.097Z,19.95
2023-05-20T13:29:39.743Z,13.48
2023-05-20T13:32:06.674Z,15.57
2023-05-20T13:34:33.582Z,14.57
2023-05-20T13:37:00.252Z,15.50
2023-05-20T13:39:27.368Z,15.48
2023-05-20T13:41:55.306Z,15.32
2023-05-20T13:44:22.071Z,17.00
2023-05-20T13:46:48.827Z,16.27
2023-05-20T13:49:15.697Z,16.25
2023-05-20T13:51:42.379Z,15.65
2023-05-20T13:54:09.067Z,14.55
2023-05-20T13:56:35.877Z,18.35
2023-05-20T13:59:02.530Z,16.25
2023-05-20T14:01:33.290Z,14.05
2023-05-20T14:04:00.184Z,14.63
2023-05-20T14:06:27.766Z,15.77
2023-05-20T14:08:55.077Z,13.73
2023-05-20T14:11:22.000Z,14.10
2023-05-20T14:13:48.658Z,12.48
2023-05-20T14:16:15.463Z,16.48
2023-05-20T14:18:42.380Z,13.80
2023-05-20T14:21:09.327Z,15.93
2023-05-20T14:23:36.121Z,13.25
2023-05-20T14:26:02.979Z,14.30
2023-05-20T14:28:29.704Z,14.05
2023-05-20T14:30:59.437Z,14.23
2023-05-20T14:33:26.296Z,13.18
2023-05-20T14:35:52.964Z,14.02
2023-05-20T14:38:21.588Z,13.43
2023-05-20T14:43:14.992Z,13.63
2023-05-20T14:45:41.738Z,14.95
2023-05-20T14:48:08.594Z,16.55
2023-05-20T14:50:35.651Z,18.30
2023-05-20T14:53:02.545Z,16.00
2023-05-20T14:55:29.382Z,19.33
2023-05-20T14:57:56.110Z,15.82
2023-05-20T15:00:22.797Z,16.55
2023-05-20T15:02:49.747Z,17.80
2023-05-20T15:05:18.208Z,18.52
2023-05-20T15:07:46.835Z,14.73
2023-05-20T15:10:13.928Z,17.35
2023-05-20T15:12:40.581Z,18.27
2023-05-20T15:15:07.671Z,19.83
2023-05-20T15:17:34.388Z,16.23
2023-05-20T15:20:01.414Z,19.95
2023-05-20T15:22:28.239Z,17.50
2023-05-20T15:24:54.969Z,19.52
2023-05-20T15:27:21.973Z,19.10
2023-05-20T15:29:48.855Z,18.85
2023-05-20T15:32:15.634Z,19.88
2023-05-20T15:34:42.262Z,16.83
2023-05-20T15:37:08.951Z,17.33
2023-05-20T15:39:38.537Z,18.92
2023-05-20T15:42:06.551Z,15.18
2023-05-20T15:44:33.743Z,18.52
2023-05-20T15:47:00.510Z,17.27
2023-05-20T15:49:27.319Z,16.63
2023-05-20T15:52:02.885Z,13.43
2023-05-20T15:54:30.844Z,15.95
2023-05-20T15:56:58.165Z,16.85
2023-05-20T15:59:25.121Z,17.58
2023-05-20T16:01:51.879Z,15.48
2023-05-20T16:04:19.343Z,14.45
2023-05-20T16:06:47.324Z,13.80
2023-05-20T16:09:14.254Z,12.15
2023-05-20T16:11:41.239Z,11.90
2023-05-20T16:14:07.977Z,12.65
2023-05-20T16:16:36.216Z,12.70
2023-05-20T16:19:03.211Z,12.98
2023-05-20T16:21:30.011Z,13.80
2023-05-20T16:23:56.710Z,12.10
2023-05-20T16:26:23.452Z,11.57
2023-05-20T16:28:50.126Z,11.50
2023-05-20T16:31:16.862Z,11.40
2023-05-20T16:33:43.589Z,12.20
2023-05-20T16:36:10.405Z,12.80
2023-05-20T16:38:37.088Z,11.40
2023-05-20T16:41:03.866Z,12.45
2023-05-20T16:43:30.655Z,11.77
2023-05-20T16:45:57.395Z,12.90
2023-05-20T16:48:24.279Z,11.75
2023-05-20T16:50:51.002Z,12.45
2023-05-20T16:53:17.712Z,13.65
2023-05-20T16:55:44.358Z,15.73
2023-05-20T16:58:11.366Z,14.27
2023-05-20T17:00:38.913Z,12.95
2023-05-20T17:03:05.905Z,13.82
2023-05-20T17:05:32.578Z,13.75
2023-05-20T17:08:00.702Z,13.77
2023-05-20T17:10:29.059Z,12.75
2023-05-20T17:12:55.988Z,12.57
2023-05-20T17:15:23.835Z,13.40
2023-05-20T17:17:51.207Z,13.85
2023-05-20T17:20:18.034Z,12.20
2023-05-20T17:22:44.781Z,12.50
2023-05-20T17:25:11.724Z,12.40
2023-05-20T17:27:38.884Z,12.32
2023-05-20T17:30:06.433Z,13.50
2023-05-20T17:32:33.135Z,12.73
2023-05-20T17:35:00.161Z,12.95
2023-05-20T17:37:26.869Z,14.10
2023-05-20T17:39:53.503Z,11.63
2023-05-20T17:42:20.314Z,11.95
2023-05-20T17:44:47.039Z,12.68
2023-05-20T17:47:13.798Z,11.57
2023-05-20T17:49:40.826Z,13.27
2023-05-20T17:52:07.840Z,12.68
2023-05-20T17:54:34.625Z,13.73
2023-05-20T17:57:01.277Z,13.68
2023-05-20T17:59:27.917Z,14.32
2023-05-20T18:01:54.601Z,14.75
2023-05-20T18:04:24.532Z,14.30
2023-05-20T18:06:51.228Z,13.23
2023-05-20T18:09:18.433Z,15.18
2023-05-20T18:11:45.071Z,15.35
2023-05-20T18:14:11.914Z,14.30
2023-05-20T18:16:38.717Z,12.90
2023-05-20T18:19:05.880Z,13.15
2023-05-20T18:21:32.574Z,14.15
2023-05-20T18:23:59.311Z,17.20
2023-05-20T18:26:26.624Z,19.25
2023-05-20T18:28:53.250Z,15.00
2023-05-20T18:31:20.033Z,15.35
2023-05-20T18:33:46.876Z,17.55
2023-05-20T18:36:13.727Z,15.95
2023-05-20T18:38:41.767Z,17.05
2023-05-20T18:41:08.795Z,16.80
2023-05-20T18:43:35.903Z,19.08
2023-05-20T18:46:02.739Z,17.23
2023-05-20T18:48:29.744Z,16.25
2023-05-20T18:50:56.648Z,19.58
2023-05-20T18:53:23.841Z,20.65
2023-05-20T18:55:51.318Z,20.00
2023-05-20T18:58:17.950Z,17.58
2023-05-20T19:00:44.702Z,17.48
2023-05-20T19:03:11.747Z,18.70
2023-05-20T19:05:38.971Z,18.13
2023-05-20T19:08:06.436Z,16.33
2023-05-20T19:10:33.315Z,19.02
2023-05-20T19:13:00.037Z,18.50
2023-05-20T19:15:26.932Z,19.33
2023-05-20T19:17:53.668Z,19.10
2023-05-20T19:20:20.683Z,21.20
2023-05-20T19:22:47.603Z,21.08
2023-05-20T19:25:14.435Z,21.25
2023-05-20T19:27:41.433Z,18.20
2023-05-20T19:30:10.707Z,20.80
2023-05-20T19:32:38.711Z,20.73
2023-05-20T19:35:06.403Z,20.52
2023-05-20T19:37:33.466Z,21.93
2023-05-20T19:40:00.416Z,20.60
2023-05-20T19:42:27.152Z,20.27
2023-05-20T19:44:54.421Z,21.30
2023-05-20T19:47:21.536Z,21.90
2023-05-20T19:49:48.646Z,19.05
2023-05-20T19:52:15.376Z,22.05
2023-05-20T19:54:43.145Z,20.17
2023-05-20T19:57:10.612Z,20.67
2023-05-20T19:59:38.375Z,22.25
2023-05-20T20:02:06.317Z,21.27
2023-05-20T20:04:33.125Z,22.85
2023-05-20T20:07:00.287Z,21.25
2023-05-20T20:09:27.426Z,22.42
2023-05-20T20:11:54.569Z,22.00
2023-05-20T20:14:21.868Z,21.67
2023-05-20T20:16:49.461Z,21.13
2023-05-20T20:19:18.916Z,22.60
2023-05-20T20:21:46.539Z,20.75
2023-05-20T20:24:13.208Z,19.02
2023-05-20T20:26:39.813Z,20.42
2023-05-20T20:29:07.665Z,19.42
2023-05-20T20:31:34.317Z,21.90
2023-05-20T20:34:01.091Z,20.98
2023-05-20T20:36:32.058Z,22.48
2023-05-20T20:38:59.670Z,21.30
2023-05-20T20:41:26.473Z,19.23
2023-05-20T20:43:53.367Z,19.70
2023-05-20T20:46:20.473Z,22.23
2023-05-20T20:48:47.433Z,20.30
2023-05-20T20:51:15.998Z,21.13
2023-05-20T20:53:43.679Z,20.95
2023-05-20T20:56:10.411Z,22.08
2023-05-20T20:58:38.495Z,20.90
2023-05-20T21:01:06.042Z,20.33
2023-05-20T21:03:40.702Z,20.13
2023-05-20T21:06:08.255Z,22.23
2023-05-20T21:08:35.060Z,19.00
2023-05-20T21:11:01.895Z,21.55
2023-05-20T21:13:31.013Z,20.33
2023-05-20T21:16:00.472Z,23.63
2023-05-20T21:18:27.111Z,20.60
2023-05-20T21:20:55.520Z,20.70
2023-05-20T21:23:22.959Z,22.50
2023-05-20T21:25:50.047Z,21.13
2023-05-20T21:28:16.822Z,22.75
2023-05-20T21:30:45.145Z,22.77
2023-05-20T21:33:12.548Z,19.95
2023-05-20T21:35:39.369Z,21.23
2023-05-20T21:38:06.129Z,22.85
2023-05-20T21:40:32.948Z,22.05
2023-05-20T21:42:59.559Z,19.98
2023-05-20T21:45:26.230Z,22.35
2023-05-20T21:47:52.924Z,20.23
2023-05-20T21:50:19.692Z,22.08
2023-05-20T21:52:46.351Z,21.27
2023-05-20T21:55:13.052Z,24.80
2023-05-20T21:57:39.850Z,21.98
2023-05-20T22:00:15.215Z,22.13
2023-05-20T22:02:42.049Z,24.25
2023-05-20T22:05:09.363Z,22.83
2023-05-20T22:07:35.960Z,24.33
2023-05-20T22:10:02.900Z,22.95
2023-05-20T22:12:29.701Z,23.75
2023-05-20T22:14:58.389Z,24.55
2023-05-20T22:17:25.222Z,21.15
2023-05-20T22:19:52.041Z,22.52
2023-05-20T22:22:18.738Z,19.25
2023-05-20T22:24:45.895Z,19.88
2023-05-20T22:27:12.727Z,19.92
2023-05-20T22:29:39.523Z,19.30
2023-05-20T22:32:06.593Z,19.70
2023-05-20T22:34:33.363Z,19.40
2023-05-20T22:37:00.436Z,21.92
2023-05-20T22:39:27.083Z,21.58
2023-05-20T22:41:53.898Z,22.23
2023-05-20T22:44:20.884Z,19.67
2023-05-20T22:46:47.526Z,22.63
2023-05-20T22:49:14.629Z,21.73
2023-05-20T22:51:41.845Z,22.00
2023-05-20T22:54:09.731Z,21.83
2023-05-20T22:56:36.511Z,20.63
2023-05-20T22:59:03.414Z,22.05
2023-05-20T23:01:30.264Z,20.63
2023-05-20T23:03:56.981Z,19.45
2023-05-20T23:06:23.755Z,20.25
2023-05-20T23:08:50.382Z,19.88
2023-05-20T23:11:17.011Z,18.92
2023-05-20T23:13:43.770Z,19.63
2023-05-20T23:16:10.679Z,21.25
2023-05-20T23:18:37.357Z,18.85
2023-05-20T23:21:04.389Z,21.63
2023-05-20T23:23:32.207Z,20.67
2023-05-20T23:25:59.735Z,21.92
2023-05-20T23:28:26.718Z,19.02
2023-05-20T23:30:53.429Z,18.02
2023-05-20T23:33:24.680Z,19.73
2023-05-20T23:35:52.433Z,19.27
2023-05-20T23:38:19.772Z,19.83
2023-05-20T23:40:46.423Z,23.40
2023-05-20T23:43:13.179Z,21.50
2023-05-20T23:45:39.815Z,20.15
2023-05-20T23:48:10.019Z,16.95
2023-05-20T23:50:36.879Z,19.65
2023-05-20T23:53:03.890Z,19.25
2023-05-20T23:55:31.989Z,20.80
2023-05-20T23:57:58.683Z,19.83
